sensor_id;sensor_type;location;lat;lon;timestamp;pressure;altitude;pressure_sealevel;temperature;humidity
79118;BME280;68523;51.336;-0.846;2023-04-01T00:03:06;98996.40;;;8.6;100.0
79118;BME280;68523;51.336;-0.846;2023-04-01T00:08:35;99005.26;;;8.6;100.0
79118;BME280;68523;51.336;-0.846;2023-04-01T00:14:05;99016.65;;;8.6;100.0
79118;BME280;68523;51.336;-0.846;2023-04-01T00:19:34;99025.33;;;8.6;100.0
79118;BME280;68523;51.336;-0.846;2023-04-01T00:24:37;99031.22;;;8.6;100.0
79118;BME280;68523;51.336;-0.846;2023-04-01T00:30:01;99042.06;;;8.7;100.0
79118;BME280;68523;51.336;-0.846;2023-04-01T00:35:04;99048.14;;;8.6;100.0
79118;BME280;68523;51.336;-0.846;2023-04-01T00:40:36;99053.78;;;8.5;100.0
79118;BME280;68523;51.336;-0.846;2023-04-01T00:45:36;99059.32;;;8.6;100.0
79118;BME280;68523;51.336;-0.846;2023-04-01T00:51:08;99063.16;;;8.5;100.0
79118;BME280;68523;51.336;-0.846;2023-04-01T00:56:36;99068.46;;;8.5;100.0
79118;BME280;68523;51.336;-0.846;2023-04-01T01:01:35;99071.44;;;8.5;100.0
79118;BME280;68523;51.336;-0.846;2023-04-01T01:07:15;99073.87;;;8.5;100.0
79118;BME280;68523;51.336;-0.846;2023-04-01T01:12:38;99075.87;;;8.5;100.0
79118;BME280;68523;51.336;-0.846;2023-04-01T01:17:45;99080.32;;;8.5;100.0
79118;BME280;68523;51.336;-0.846;2023-04-01T01:23:25;99083.80;;;8.5;100.0
79118;BME280;68523;51.336;-0.846;2023-04-01T01:28:21;99088.87;;;8.4;100.0
79118;BME280;68523;51.336;-0.846;2023-04-01T01:33:44;99089.33;;;8.5;100.0
79118;BME280;68523;51.336;-0.846;2023-04-01T01:39:06;99094.45;;;8.5;100.0
79118;BME280;68523;51.336;-0.846;2023-04-01T01:44:37;99097.50;;;8.5;100.0
79118;BME280;68523;51.336;-0.846;2023-04-01T01:50:03;99103.43;;;8.5;100.0
79118;BME280;68523;51.336;-0.846;2023-04-01T01:55:34;99110.32;;;8.4;100.0
79118;BME280;68523;51.336;-0.846;2023-04-01T02:00:38;99112.61;;;8.5;100.0
79118;BME280;68523;51.336;-0.846;2023-04-01T02:06:05;99122.91;;;8.5;100.0
79118;BME280;68523;51.336;-0.846;2023-04-01T02:11:06;99128.26;;;8.4;100.0
79118;BME280;68523;51.336;-0.846;2023-04-01T02:16:11;99131.85;;;8.4;100.0
79118;BME280;68523;51.336;-0.846;2023-04-01T02:21:06;99135.22;;;8.4;100.0
79118;BME280;68523;51.336;-0.846;2023-04-01T02:26:36;99140.96;;;8.3;100.0
79118;BME280;68523;51.336;-0.846;2023-04-01T02:32:06;99144.56;;;8.4;100.0
79118;BME280;68523;51.336;-0.846;2023-04-01T02:37:36;99150.49;;;8.4;100.0
79118;BME280;68523;51.336;-0.846;2023-04-01T02:43:06;99157.37;;;8.3;100.0
79118;BME280;68523;51.336;-0.846;2023-04-01T02:48:35;99159.00;;;8.4;100.0
79118;BME280;68523;51.336;-0.846;2023-04-01T02:53:37;99159.18;;;8.4;100.0
79118;BME280;68523;51.336;-0.846;2023-04-01T02:59:02;99157.96;;;8.4;100.0
79118;BME280;68523;51.336;-0.846;2023-04-01T03:04:05;99162.19;;;8.4;100.0
79118;BME280;68523;51.336;-0.846;2023-04-01T03:09:34;99169.65;;;8.5;100.0
79118;BME280;68523;51.336;-0.846;2023-04-01T03:14:36;99176.27;;;8.5;100.0
79118;BME280;68523;51.336;-0.846;2023-04-01T03:20:07;99179.81;;;8.5;100.0
79118;BME280;68523;51.336;-0.846;2023-04-01T03:25:37;99184.42;;;8.5;100.0
79118;BME280;68523;51.336;-0.846;2023-04-01T03:31:06;99189.11;;;8.5;100.0
79118;BME280;68523;51.336;-0.846;2023-04-01T03:36:36;99189.19;;;8.6;100.0
79118;BME280;68523;51.336;-0.846;2023-04-01T03:42:05;99192.67;;;8.5;100.0
79118;BME280;68523;51.336;-0.846;2023-04-01T03:47:34;99194.00;;;8.5;100.0
79118;BME280;68523;51.336;-0.846;2023-04-01T03:52:37;99197.10;;;8.4;100.0
79118;BME280;68523;51.336;-0.846;2023-04-01T03:58:07;99200.59;;;8.3;100.0
79118;BME280;68523;51.336;-0.846;2023-04-01T04:03:36;99209.10;;;8.3;100.0
79118;BME280;68523;51.336;-0.846;2023-04-01T04:09:05;99213.45;;;8.4;100.0
79118;BME280;68523;51.336;-0.846;2023-04-01T04:14:35;99219.56;;;8.5;100.0
79118;BME280;68523;51.336;-0.846;2023-04-01T04:19:37;99224.80;;;8.6;100.0
79118;BME280;68523;51.336;-0.846;2023-04-01T04:25:01;99229.08;;;8.6;100.0
79118;BME280;68523;51.336;-0.846;2023-04-01T04:30:07;99235.38;;;8.7;100.0
79118;BME280;68523;51.336;-0.846;2023-04-01T04:35:06;99237.61;;;8.5;100.0
79118;BME280;68523;51.336;-0.846;2023-04-01T04:40:36;99244.40;;;8.5;100.0
79118;BME280;68523;51.336;-0.846;2023-04-01T04:46:06;99253.19;;;8.6;100.0
79118;BME280;68523;51.336;-0.846;2023-04-01T04:51:35;99256.66;;;8.4;100.0
79118;BME280;68523;51.336;-0.846;2023-04-01T04:56:38;99265.48;;;8.3;100.0
79118;BME280;68523;51.336;-0.846;2023-04-01T05:02:01;99272.81;;;8.3;100.0
79118;BME280;68523;51.336;-0.846;2023-04-01T05:07:04;99276.29;;;8.4;100.0
79118;BME280;68523;51.336;-0.846;2023-04-01T05:12:33;99282.49;;;8.5;100.0
79118;BME280;68523;51.336;-0.846;2023-04-01T05:17:36;99288.75;;;8.3;100.0
79118;BME280;68523;51.336;-0.846;2023-04-01T05:23:05;99296.02;;;8.3;100.0
79118;BME280;68523;51.336;-0.846;2023-04-01T05:28:35;99301.93;;;8.5;100.0
79118;BME280;68523;51.336;-0.846;2023-04-01T05:33:38;99307.83;;;8.4;100.0
79118;BME280;68523;51.336;-0.846;2023-04-01T05:39:02;99310.43;;;8.9;100.0
79118;BME280;68523;51.336;-0.846;2023-04-01T05:44:05;99314.97;;;8.6;100.0
79118;BME280;68523;51.336;-0.846;2023-04-01T05:49:34;99321.82;;;8.9;100.0
79118;BME280;68523;51.336;-0.846;2023-04-01T05:54:37;99329.75;;;9.0;100.0
79118;BME280;68523;51.336;-0.846;2023-04-01T06:00:01;99339.29;;;9.0;100.0
79118;BME280;68523;51.336;-0.846;2023-04-01T06:05:13;99347.50;;;9.3;100.0
79118;BME280;68523;51.336;-0.846;2023-04-01T06:10:42;99351.41;;;9.3;100.0
79118;BME280;68523;51.336;-0.846;2023-04-01T06:15:40;99352.25;;;8.7;100.0
79118;BME280;68523;51.336;-0.846;2023-04-01T06:21:16;99361.27;;;8.7;100.0
79118;BME280;68523;51.336;-0.846;2023-04-01T06:26:38;99366.11;;;8.6;100.0
79118;BME280;68523;51.336;-0.846;2023-04-01T06:31:44;99368.57;;;8.5;100.0
79118;BME280;68523;51.336;-0.846;2023-04-01T06:36:47;99373.56;;;8.4;100.0
79118;BME280;68523;51.336;-0.846;2023-04-01T06:42:21;99383.53;;;8.9;100.0
79118;BME280;68523;51.336;-0.846;2023-04-01T06:47:50;99392.27;;;9.0;100.0
79118;BME280;68523;51.336;-0.846;2023-04-01T06:53:06;99398.70;;;9.3;100.0
79118;BME280;68523;51.336;-0.846;2023-04-01T06:58:37;99402.85;;;8.9;100.0
79118;BME280;68523;51.336;-0.846;2023-04-01T07:03:39;99406.69;;;8.6;100.0
79118;BME280;68523;51.336;-0.846;2023-04-01T07:09:08;99411.80;;;8.8;100.0
79118;BME280;68523;51.336;-0.846;2023-04-01T07:14:36;99422.87;;;8.5;100.0
79118;BME280;68523;51.336;-0.846;2023-04-01T07:19:39;99428.62;;;9.0;100.0
79118;BME280;68523;51.336;-0.846;2023-04-01T07:25:13;99435.08;;;9.1;100.0
79118;BME280;68523;51.336;-0.846;2023-04-01T07:30:47;99442.78;;;9.1;100.0
79118;BME280;68523;51.336;-0.846;2023-04-01T07:35:41;99446.33;;;8.9;100.0
79118;BME280;68523;51.336;-0.846;2023-04-01T07:41:11;99452.60;;;8.8;100.0
79118;BME280;68523;51.336;-0.846;2023-04-01T07:46:51;99458.81;;;8.8;100.0
79118;BME280;68523;51.336;-0.846;2023-04-01T07:52:09;99466.10;;;8.9;100.0
79118;BME280;68523;51.336;-0.846;2023-04-01T07:57:42;99475.95;;;8.6;100.0
79118;BME280;68523;51.336;-0.846;2023-04-01T08:03:16;99484.83;;;8.8;100.0
79118;BME280;68523;51.336;-0.846;2023-04-01T08:08:45;99489.98;;;8.9;100.0
79118;BME280;68523;51.336;-0.846;2023-04-01T08:13:40;99497.30;;;8.8;100.0
79118;BME280;68523;51.336;-0.846;2023-04-01T08:18:43;99500.50;;;9.2;100.0
79118;BME280;68523;51.336;-0.846;2023-04-01T08:24:22;99510.52;;;9.3;100.0
79118;BME280;68523;51.336;-0.846;2023-04-01T08:29:38;99521.63;;;9.0;100.0
79118;BME280;68523;51.336;-0.846;2023-04-01T08:35:14;99527.94;;;9.1;100.0
79118;BME280;68523;51.336;-0.846;2023-04-01T08:40:56;99536.44;;;9.1;100.0
79118;BME280;68523;51.336;-0.846;2023-04-01T08:45:44;99542.25;;;8.8;100.0
79118;BME280;68523;51.336;-0.846;2023-04-01T08:50:45;99550.67;;;8.9;100.0
79118;BME280;68523;51.336;-0.846;2023-04-01T08:55:46;99553.18;;;8.5;100.0
79118;BME280;68523;51.336;-0.846;2023-04-01T09:01:13;99564.84;;;8.8;100.0
79118;BME280;68523;51.336;-0.846;2023-04-01T09:06:24;99569.07;;;8.6;100.0
79118;BME280;68523;51.336;-0.846;2023-04-01T09:11:51;99568.81;;;9.1;100.0
79118;BME280;68523;51.336;-0.846;2023-04-01T09:16:59;99571.89;;;9.8;100.0
79118;BME280;68523;51.336;-0.846;2023-04-01T09:22:18;99581.27;;;9.8;98.1
79118;BME280;68523;51.336;-0.846;2023-04-01T09:27:39;99591.80;;;9.3;99.1
79118;BME280;68523;51.336;-0.846;2023-04-01T09:32:46;99600.75;;;9.0;99.8
79118;BME280;68523;51.336;-0.846;2023-04-01T09:38:17;99601.50;;;9.0;99.2
79118;BME280;68523;51.336;-0.846;2023-04-01T09:43:46;99604.70;;;8.8;99.6
79118;BME280;68523;51.336;-0.846;2023-04-01T09:49:02;99608.65;;;8.9;100.0
79118;BME280;68523;51.336;-0.846;2023-04-01T09:53:50;99615.92;;;8.9;100.0
79118;BME280;68523;51.336;-0.846;2023-04-01T09:58:54;99621.39;;;8.8;100.0
79118;BME280;68523;51.336;-0.846;2023-04-01T10:04:22;99634.83;;;8.7;100.0
79118;BME280;68523;51.336;-0.846;2023-04-01T10:10:03;99644.41;;;8.6;100.0
79118;BME280;68523;51.336;-0.846;2023-04-01T10:14:59;99651.99;;;9.0;100.0
79118;BME280;68523;51.336;-0.846;2023-04-01T10:19:55;99659.18;;;8.9;100.0
79118;BME280;68523;51.336;-0.846;2023-04-01T10:25:24;99666.35;;;8.6;100.0
79118;BME280;68523;51.336;-0.846;2023-04-01T10:30:29;99676.00;;;8.3;100.0
79118;BME280;68523;51.336;-0.846;2023-04-01T10:36:02;99681.28;;;8.7;100.0
79118;BME280;68523;51.336;-0.846;2023-04-01T10:40:53;99684.59;;;9.0;99.7
79118;BME280;68523;51.336;-0.846;2023-04-01T10:46:22;99688.71;;;9.3;98.0
79118;BME280;68523;51.336;-0.846;2023-04-01T10:51:55;99697.84;;;9.3;97.7
79118;BME280;68523;51.336;-0.846;2023-04-01T10:56:39;99701.40;;;8.7;99.3
79118;BME280;68523;51.336;-0.846;2023-04-01T11:02:14;99707.54;;;9.0;100.0
79118;BME280;68523;51.336;-0.846;2023-04-01T11:07:05;99710.63;;;9.2;98.8
79118;BME280;68523;51.336;-0.846;2023-04-01T11:12:24;99714.63;;;9.1;97.3
79118;BME280;68523;51.336;-0.846;2023-04-01T11:17:36;99721.24;;;9.4;97.2
79118;BME280;68523;51.336;-0.846;2023-04-01T11:22:47;99731.53;;;9.3;96.9
79118;BME280;68523;51.336;-0.846;2023-04-01T11:28:21;99738.76;;;9.4;96.8
79118;BME280;68523;51.336;-0.846;2023-04-01T11:33:38;99743.87;;;9.6;96.3
79118;BME280;68523;51.336;-0.846;2023-04-01T11:38:55;99748.54;;;9.4;95.9
79118;BME280;68523;51.336;-0.846;2023-04-01T11:44:18;99756.30;;;10.1;94.7
79118;BME280;68523;51.336;-0.846;2023-04-01T11:49:21;99765.59;;;9.8;94.5
79118;BME280;68523;51.336;-0.846;2023-04-01T11:54:46;99777.32;;;9.6;94.9
79118;BME280;68523;51.336;-0.846;2023-04-01T11:59:50;99784.26;;;9.4;96.3
79118;BME280;68523;51.336;-0.846;2023-04-01T12:05:23;99791.54;;;9.8;96.7
79118;BME280;68523;51.336;-0.846;2023-04-01T12:10:17;99801.23;;;9.8;94.9
79118;BME280;68523;51.336;-0.846;2023-04-01T12:15:48;99812.34;;;9.7;94.9
79118;BME280;68523;51.336;-0.846;2023-04-01T12:21:11;99819.76;;;9.9;92.8
79118;BME280;68523;51.336;-0.846;2023-04-01T12:26:16;99821.23;;;9.7;93.1
79118;BME280;68523;51.336;-0.846;2023-04-01T12:31:19;99828.06;;;9.8;92.3
79118;BME280;68523;51.336;-0.846;2023-04-01T12:36:47;99833.28;;;9.9;91.5
79118;BME280;68523;51.336;-0.846;2023-04-01T12:42:14;99842.44;;;9.6;91.5
79118;BME280;68523;51.336;-0.846;2023-04-01T12:47:19;99848.29;;;9.7;93.6
79118;BME280;68523;51.336;-0.846;2023-04-01T12:52:47;99854.60;;;9.5;94.4
79118;BME280;68523;51.336;-0.846;2023-04-01T12:58:29;99858.10;;;9.4;94.0
79118;BME280;68523;51.336;-0.846;2023-04-01T13:03:55;99867.80;;;9.5;94.7
79118;BME280;68523;51.336;-0.846;2023-04-01T13:08:42;99874.43;;;9.6;93.4
79118;BME280;68523;51.336;-0.846;2023-04-01T13:14:17;99883.67;;;9.8;93.0
79118;BME280;68523;51.336;-0.846;2023-04-01T13:19:07;99894.85;;;9.4;93.1
79118;BME280;68523;51.336;-0.846;2023-04-01T13:24:13;99903.78;;;9.7;93.1
79118;BME280;68523;51.336;-0.846;2023-04-01T13:29:41;99912.98;;;9.1;93.4
79118;BME280;68523;51.336;-0.846;2023-04-01T13:35:16;99919.96;;;9.3;92.8
79118;BME280;68523;51.336;-0.846;2023-04-01T13:45:47;99931.17;;;9.8;93.0
79118;BME280;68523;51.336;-0.846;2023-04-01T13:51:01;99937.58;;;9.3;93.0
79118;BME280;68523;51.336;-0.846;2023-04-01T13:56:12;99941.51;;;9.8;93.0
79118;BME280;68523;51.336;-0.846;2023-04-01T14:01:08;99954.01;;;9.5;92.5
79118;BME280;68523;51.336;-0.846;2023-04-01T14:06:11;99963.62;;;9.3;92.3
79118;BME280;68523;51.336;-0.846;2023-04-01T14:11:15;99968.86;;;9.6;91.3
79118;BME280;68523;51.336;-0.846;2023-04-01T14:16:53;99978.12;;;9.5;91.3
79118;BME280;68523;51.336;-0.846;2023-04-01T14:21:42;99984.27;;;9.9;91.1
79118;BME280;68523;51.336;-0.846;2023-04-01T14:27:21;99992.62;;;9.5;91.7
79118;BME280;68523;51.336;-0.846;2023-04-01T14:32:12;100004.09;;;9.4;92.4
79118;BME280;68523;51.336;-0.846;2023-04-01T14:38:04;100010.42;;;9.5;92.6
79118;BME280;68523;51.336;-0.846;2023-04-01T14:42:52;100015.15;;;9.9;91.4
79118;BME280;68523;51.336;-0.846;2023-04-01T14:48:14;100023.64;;;9.6;90.4
79118;BME280;68523;51.336;-0.846;2023-04-01T14:53:13;100031.17;;;9.7;90.4
79118;BME280;68523;51.336;-0.846;2023-04-01T14:58:43;100035.45;;;9.9;89.6
79118;BME280;68523;51.336;-0.846;2023-04-01T15:03:40;100042.35;;;10.1;88.5
79118;BME280;68523;51.336;-0.846;2023-04-01T15:08:47;100045.78;;;9.8;88.5
79118;BME280;68523;51.336;-0.846;2023-04-01T15:14:18;100052.48;;;9.7;89.2
79118;BME280;68523;51.336;-0.846;2023-04-01T15:19:12;100063.41;;;9.7;89.1
79118;BME280;68523;51.336;-0.846;2023-04-01T15:24:44;100070.45;;;9.5;89.6
79118;BME280;68523;51.336;-0.846;2023-04-01T15:30:19;100079.47;;;9.5;89.6
79118;BME280;68523;51.336;-0.846;2023-04-01T15:35:42;100086.56;;;9.6;89.8
79118;BME280;68523;51.336;-0.846;2023-04-01T15:40:44;100094.42;;;9.8;89.7
79118;BME280;68523;51.336;-0.846;2023-04-01T15:46:20;100100.28;;;9.4;89.7
79118;BME280;68523;51.336;-0.846;2023-04-01T15:51:47;100109.62;;;9.1;87.5
79118;BME280;68523;51.336;-0.846;2023-04-01T15:57:09;100115.09;;;9.2;88.1
79118;BME280;68523;51.336;-0.846;2023-04-01T16:02:16;100121.43;;;9.4;86.8
79118;BME280;68523;51.336;-0.846;2023-04-01T16:07:43;100134.18;;;9.5;86.3
79118;BME280;68523;51.336;-0.846;2023-04-01T16:13:17;100146.08;;;9.3;85.1
79118;BME280;68523;51.336;-0.846;2023-04-01T16:18:27;100148.98;;;9.4;85.2
79118;BME280;68523;51.336;-0.846;2023-04-01T16:23:38;100160.56;;;9.2;84.8
79118;BME280;68523;51.336;-0.846;2023-04-01T16:28:42;100171.32;;;10.3;82.2
79118;BME280;68523;51.336;-0.846;2023-04-01T16:34:07;100172.00;;;10.6;78.2
79118;BME280;68523;51.336;-0.846;2023-04-01T16:39:22;100175.97;;;10.6;78.4
79118;BME280;68523;51.336;-0.846;2023-04-01T16:44:47;100184.29;;;10.0;80.4
79118;BME280;68523;51.336;-0.846;2023-04-01T16:49:39;100193.74;;;9.5;81.4
79118;BME280;68523;51.336;-0.846;2023-04-01T16:55:15;100206.01;;;9.5;83.5
79118;BME280;68523;51.336;-0.846;2023-04-01T17:00:39;100215.06;;;9.8;82.7
79118;BME280;68523;51.336;-0.846;2023-04-01T17:06:13;100229.16;;;9.2;83.9
79118;BME280;68523;51.336;-0.846;2023-04-01T17:11:38;100243.37;;;9.3;83.9
79118;BME280;68523;51.336;-0.846;2023-04-01T17:16:52;100253.90;;;9.3;83.1
79118;BME280;68523;51.336;-0.846;2023-04-01T17:22:11;100266.62;;;9.1;83.7
79118;BME280;68523;51.336;-0.846;2023-04-01T17:27:13;100275.38;;;9.2;83.9
79118;BME280;68523;51.336;-0.846;2023-04-01T17:32:06;100284.60;;;9.0;84.6
79118;BME280;68523;51.336;-0.846;2023-04-01T17:37:43;100296.29;;;8.8;84.6
79118;BME280;68523;51.336;-0.846;2023-04-01T17:42:41;100302.12;;;8.8;83.7
79118;BME280;68523;51.336;-0.846;2023-04-01T17:48:18;100309.45;;;8.5;83.5
79118;BME280;68523;51.336;-0.846;2023-04-01T17:53:44;100326.17;;;8.6;83.2
79118;BME280;68523;51.336;-0.846;2023-04-01T17:59:15;100337.07;;;8.6;83.9
79118;BME280;68523;51.336;-0.846;2023-04-01T18:04:46;100350.96;;;8.6;83.6
79118;BME280;68523;51.336;-0.846;2023-04-01T18:10:16;100366.71;;;8.6;83.2
79118;BME280;68523;51.336;-0.846;2023-04-01T18:15:19;100371.77;;;8.4;82.4
79118;BME280;68523;51.336;-0.846;2023-04-01T18:20:43;100376.85;;;8.5;82.2
79118;BME280;68523;51.336;-0.846;2023-04-01T18:26:09;100389.52;;;8.4;82.6
79118;BME280;68523;51.336;-0.846;2023-04-01T18:31:38;100400.07;;;8.5;82.0
79118;BME280;68523;51.336;-0.846;2023-04-01T18:37:17;100413.83;;;8.4;82.9
79118;BME280;68523;51.336;-0.846;2023-04-01T18:42:15;100424.88;;;8.3;83.3
79118;BME280;68523;51.336;-0.846;2023-04-01T18:47:41;100436.79;;;8.1;84.1
79118;BME280;68523;51.336;-0.846;2023-04-01T18:52:37;100444.13;;;8.4;84.0
79118;BME280;68523;51.336;-0.846;2023-04-01T18:57:41;100455.38;;;8.0;84.5
79118;BME280;68523;51.336;-0.846;2023-04-01T19:03:10;100463.33;;;8.0;85.0
79118;BME280;68523;51.336;-0.846;2023-04-01T19:08:25;100465.22;;;8.1;85.1
79118;BME280;68523;51.336;-0.846;2023-04-01T19:13:42;100474.22;;;8.1;84.9
79118;BME280;68523;51.336;-0.846;2023-04-01T19:18:46;100484.11;;;7.8;85.7
79118;BME280;68523;51.336;-0.846;2023-04-01T19:24:18;100491.29;;;8.0;85.9
79118;BME280;68523;51.336;-0.846;2023-04-01T19:29:47;100494.13;;;7.7;87.1
79118;BME280;68523;51.336;-0.846;2023-04-01T19:35:17;100499.92;;;7.6;87.8
79118;BME280;68523;51.336;-0.846;2023-04-01T19:40:20;100511.76;;;7.7;87.7
79118;BME280;68523;51.336;-0.846;2023-04-01T19:45:42;100519.46;;;7.5;87.9
79118;BME280;68523;51.336;-0.846;2023-04-01T19:50:38;100526.28;;;7.7;87.7
79118;BME280;68523;51.336;-0.846;2023-04-01T19:55:40;100542.67;;;7.7;87.8
79118;BME280;68523;51.336;-0.846;2023-04-01T20:01:04;100549.72;;;7.8;87.8
79118;BME280;68523;51.336;-0.846;2023-04-01T20:06:13;100555.72;;;7.8;87.3
79118;BME280;68523;51.336;-0.846;2023-04-01T20:11:50;100564.82;;;7.9;86.9
79118;BME280;68523;51.336;-0.846;2023-04-01T20:17:11;100573.95;;;7.8;87.0
79118;BME280;68523;51.336;-0.846;2023-04-01T20:22:09;100581.95;;;7.9;86.0
79118;BME280;68523;51.336;-0.846;2023-04-01T20:27:08;100587.95;;;7.9;85.7
79118;BME280;68523;51.336;-0.846;2023-04-01T20:32:47;100603.19;;;7.9;86.0
79118;BME280;68523;51.336;-0.846;2023-04-01T20:37:41;100612.32;;;8.0;85.5
79118;BME280;68523;51.336;-0.846;2023-04-01T20:43:32;100622.10;;;8.0;85.3
79118;BME280;68523;51.336;-0.846;2023-04-01T20:48:57;100622.89;;;7.9;85.4
79118;BME280;68523;51.336;-0.846;2023-04-01T20:53:42;100634.14;;;7.8;85.8
79118;BME280;68523;51.336;-0.846;2023-04-01T20:59:23;100642.48;;;8.0;85.8
79118;BME280;68523;51.336;-0.846;2023-04-01T21:04:18;100646.85;;;7.9;85.5
79118;BME280;68523;51.336;-0.846;2023-04-01T21:09:44;100657.07;;;7.7;88.1
79118;BME280;68523;51.336;-0.846;2023-04-01T21:15:15;100670.17;;;7.8;89.1
79118;BME280;68523;51.336;-0.846;2023-04-01T21:20:18;100691.13;;;7.5;92.3
79118;BME280;68523;51.336;-0.846;2023-04-01T21:25:45;100698.03;;;7.1;98.2
79118;BME280;68523;51.336;-0.846;2023-04-01T21:31:17;100707.23;;;6.8;100.0
79118;BME280;68523;51.336;-0.846;2023-04-01T21:36:44;100715.76;;;6.8;100.0
79118;BME280;68523;51.336;-0.846;2023-04-01T21:42:17;100721.49;;;7.0;100.0
79118;BME280;68523;51.336;-0.846;2023-04-01T21:47:51;100727.98;;;7.0;100.0
79118;BME280;68523;51.336;-0.846;2023-04-01T21:53:46;100735.89;;;7.3;100.0
79118;BME280;68523;51.336;-0.846;2023-04-01T21:58:56;100741.75;;;7.3;100.0
79118;BME280;68523;51.336;-0.846;2023-04-01T22:04:30;100745.31;;;7.3;100.0
79118;BME280;68523;51.336;-0.846;2023-04-01T22:09:39;100751.15;;;7.1;100.0
79118;BME280;68523;51.336;-0.846;2023-04-01T22:14:42;100758.08;;;7.2;100.0
79118;BME280;68523;51.336;-0.846;2023-04-01T22:20:14;100767.21;;;7.4;100.0
79118;BME280;68523;51.336;-0.846;2023-04-01T22:25:40;100780.46;;;7.3;100.0
79118;BME280;68523;51.336;-0.846;2023-04-01T22:31:07;100784.90;;;7.4;100.0
79118;BME280;68523;51.336;-0.846;2023-04-01T22:36:40;100784.21;;;7.5;100.0
79118;BME280;68523;51.336;-0.846;2023-04-01T22:41:47;100787.62;;;7.4;100.0
79118;BME280;68523;51.336;-0.846;2023-04-01T22:46:48;100797.80;;;7.4;100.0
79118;BME280;68523;51.336;-0.846;2023-04-01T22:51:41;100807.03;;;7.4;100.0
79118;BME280;68523;51.336;-0.846;2023-04-01T22:57:10;100815.64;;;7.2;100.0
79118;BME280;68523;51.336;-0.846;2023-04-01T23:02:40;100824.96;;;7.0;100.0
79118;BME280;68523;51.336;-0.846;2023-04-01T23:13:13;100843.04;;;6.6;100.0
79118;BME280;68523;51.336;-0.846;2023-04-01T23:18:36;100851.89;;;6.6;100.0
79118;BME280;68523;51.336;-0.846;2023-04-01T23:24:14;100859.51;;;6.9;100.0
79118;BME280;68523;51.336;-0.846;2023-04-01T23:29:35;100864.19;;;6.9;100.0
79118;BME280;68523;51.336;-0.846;2023-04-01T23:34:35;100873.93;;;6.7;100.0
79118;BME280;68523;51.336;-0.846;2023-04-01T23:40:12;100888.20;;;6.8;100.0
79118;BME280;68523;51.336;-0.846;2023-04-01T23:45:13;100897.31;;;6.7;100.0
79118;BME280;68523;51.336;-0.846;2023-04-01T23:50:10;100896.25;;;6.5;100.0
79118;BME280;68523;51.336;-0.846;2023-04-01T23:55:35;100906.44;;;6.5;100.0
